Hlavní strana
METAR-TAF:

METAR-TAF

Letiště :

Letiště Split

Split, Chorvatsko

zeměpisná šířka: 43-32N, zeměpisná délka: 016-18E, výška: 19 m

Aktuální stav počasí

Zpráva byla vytvořena před 33 minutami, v 00:00 UTC
Severoseverozápadní vítr 7 kt
Teplota 15°C
Vlhkost vzduchu 44%
Tlak 1026 hPa
Viditelnost 10 km a více
Žádná oblačnost pod 1500 m, nevyskytují se cumulonimby.

METAR: LDSP 200000Z AUTO 34007KT CAVOK 15/03 Q1026

Čas: 02:33 (00:33 UTC)

Předpověď počasí

Zpráva byla vytvořena před 1 hodinou a 8 minutami, v 23:25 UTC
Předpověď platná od 20 v 00 UTC do 21 v 00 UTC
Západoseverozápadní vítr 6 kt
Viditelnost 10 km a více
Žádná oblačnost pod 1500 m, nevyskytují se cumulonimby.
Změna
od 20 v 09 UTC do 20 v 11 UTC
Jihozápadní vítr 12 kt
Změna
od 20 v 16 UTC do 20 v 18 UTC
vítr z různých směrů 2 kt

TAF: LDSP 192325Z 2000/2100 30006KT CAVOK TX22/2012Z TN12/2004Z BECMG 2009/2011 23012KT BECMG 2016/2018 VRB02KT

Stav a předpovědi počasí z více než 4 000 letišť (zprávy METAR a TAF).

Červené a žluté tečky na mapě představují dostupné meteorologické stanice.

Když kurzor umístíte na tečku, zobrazí se název stanice.

Pak kliknutím zobrazíte stav a předpověď počasí.

Chcete-li změnit mapu, kliknutím na zelené tlačítko se znaménkem +mapu přiblížíte, kliknutím na zelené tlačítko se znaménkem – mapu oddálíte a kliknutím na zelené šipky přejdete na sousední mapy.


METAR-TAF: